createdAt,value
2023-04-21T00:00:09.989Z,7.90
2023-04-21T00:04:15.238Z,7.90
2023-04-21T00:08:19.035Z,7.90
2023-04-21T00:12:23.264Z,8.00
2023-04-21T00:16:26.135Z,8.00
2023-04-21T00:20:29.049Z,8.00
2023-04-21T00:24:31.849Z,8.00
2023-04-21T00:28:36.043Z,8.00
2023-04-21T00:32:40.259Z,7.90
2023-04-21T00:36:43.123Z,7.90
2023-04-21T00:40:45.918Z,7.90
2023-04-21T00:44:50.505Z,7.90
2023-04-21T00:48:53.283Z,7.90
2023-04-21T00:52:57.636Z,7.90
2023-04-21T00:57:02.266Z,7.80
2023-04-21T01:01:07.598Z,7.90
2023-04-21T01:05:12.755Z,8.00
2023-04-21T01:09:15.775Z,8.00
2023-04-21T01:13:21.003Z,8.00
2023-04-21T01:17:25.685Z,8.00
2023-04-21T01:21:29.440Z,8.10
2023-04-21T01:25:33.714Z,8.10
2023-04-21T01:29:36.554Z,8.10
2023-04-21T01:33:39.420Z,8.10
2023-04-21T01:37:42.267Z,8.20
2023-04-21T01:41:46.456Z,8.20
2023-04-21T01:45:50.785Z,8.20
2023-04-21T01:49:54.115Z,8.20
2023-04-21T01:53:56.956Z,8.10
2023-04-21T01:58:01.347Z,8.10
2023-04-21T02:02:04.401Z,8.20
2023-04-21T02:06:09.571Z,8.20
2023-04-21T02:10:13.130Z,8.20
2023-04-21T02:14:20.000Z,8.20
2023-04-21T02:18:22.965Z,8.20
2023-04-21T02:22:27.069Z,8.20
2023-04-21T02:26:31.559Z,8.10
2023-04-21T02:30:37.799Z,8.00
2023-04-21T02:34:42.064Z,8.00
2023-04-21T02:38:44.903Z,7.90
2023-04-21T02:42:47.712Z,7.90
2023-04-21T02:46:51.946Z,8.00
2023-04-21T02:50:54.793Z,8.10
2023-04-21T02:54:57.600Z,8.10
2023-04-21T02:59:01.449Z,8.10
2023-04-21T03:03:06.596Z,8.00
2023-04-21T03:07:13.879Z,7.90
2023-04-21T03:11:16.692Z,7.90
2023-04-21T03:15:19.673Z,7.90
2023-04-21T03:19:23.845Z,7.90
2023-04-21T03:23:26.695Z,7.90
2023-04-21T03:27:29.455Z,7.90
2023-04-21T03:31:33.435Z,8.00
2023-04-21T03:35:37.652Z,7.90
2023-04-21T03:39:44.032Z,7.80
2023-04-21T03:43:47.154Z,7.70
2023-04-21T03:47:50.040Z,7.60
2023-04-21T03:51:54.788Z,7.60
2023-04-21T03:55:57.590Z,7.60
2023-04-21T04:00:00.427Z,7.60
2023-04-21T04:04:03.874Z,7.60
2023-04-21T04:08:08.422Z,7.80
2023-04-21T04:12:11.826Z,7.70
2023-04-21T04:16:14.814Z,7.60
2023-04-21T04:20:17.882Z,7.60
2023-04-21T04:24:22.088Z,7.60
2023-04-21T04:28:24.889Z,7.50
2023-04-21T04:32:28.850Z,7.50
2023-04-21T04:36:32.280Z,7.50
2023-04-21T04:40:36.487Z,7.60
2023-04-21T04:44:41.461Z,7.60
2023-04-21T04:48:44.304Z,7.60
2023-04-21T04:52:49.054Z,7.60
2023-04-21T04:56:53.237Z,7.70
2023-04-21T05:00:56.001Z,7.70
2023-04-21T05:04:58.933Z,7.70
2023-04-21T05:09:01.716Z,7.80
2023-04-21T05:13:06.726Z,7.80
2023-04-21T05:17:09.613Z,7.90
2023-04-21T05:21:12.366Z,7.80
2023-04-21T05:25:15.837Z,7.90
2023-04-21T05:29:20.031Z,8.00
2023-04-21T05:33:22.799Z,8.10
2023-04-21T05:37:25.608Z,8.10
2023-04-21T05:41:28.460Z,8.20
2023-04-21T05:45:32.636Z,8.20
2023-04-21T05:49:35.476Z,8.30
2023-04-21T05:53:38.398Z,9.00
2023-04-21T05:57:41.167Z,10.20
2023-04-21T06:01:45.804Z,10.70
2023-04-21T06:05:48.681Z,10.40
2023-04-21T06:09:52.190Z,10.30
2023-04-21T06:13:58.248Z,10.00
2023-04-21T06:18:02.405Z,9.90
2023-04-21T06:22:05.228Z,9.90
2023-04-21T06:26:09.402Z,9.90
2023-04-21T06:30:12.680Z,9.90
2023-04-21T06:34:17.253Z,10.20
2023-04-21T06:38:20.273Z,10.30
2023-04-21T06:42:23.197Z,10.50
2023-04-21T06:46:26.094Z,11.50
2023-04-21T06:50:30.319Z,12.00
2023-04-21T06:54:33.083Z,11.90
2023-04-21T06:58:35.860Z,11.90
2023-04-21T07:02:38.727Z,11.80
2023-04-21T07:06:43.503Z,11.70
2023-04-21T07:10:46.360Z,11.70
2023-04-21T07:14:49.165Z,11.90
2023-04-21T07:18:51.954Z,12.50
2023-04-21T07:22:56.151Z,13.90
2023-04-21T07:26:59.184Z,14.80
2023-04-21T07:31:03.590Z,17.60
2023-04-21T07:35:07.288Z,17.70
2023-04-21T07:39:11.646Z,16.80
2023-04-21T07:43:14.453Z,16.10
2023-04-21T07:47:17.294Z,15.50
2023-04-21T07:51:20.171Z,15.20
2023-04-21T07:55:24.418Z,15.60
2023-04-21T07:59:27.183Z,15.90
2023-04-21T08:03:30.180Z,15.40
2023-04-21T08:07:33.296Z,15.00
2023-04-21T08:11:37.569Z,14.90
2023-04-21T08:15:40.704Z,15.10
2023-04-21T08:19:43.510Z,15.20
2023-04-21T08:23:46.377Z,15.40
2023-04-21T08:27:50.651Z,16.30
2023-04-21T08:31:53.519Z,16.00
2023-04-21T08:40:05.053Z,15.90
2023-04-21T08:44:11.460Z,16.50
2023-04-21T08:48:16.334Z,16.20
2023-04-21T08:52:19.397Z,15.90
2023-04-21T08:56:23.018Z,15.90
2023-04-21T09:00:27.283Z,16.30
2023-04-21T09:04:31.301Z,16.20
2023-04-21T09:08:35.010Z,16.10
2023-04-21T09:12:39.985Z,16.10
2023-04-21T09:16:44.730Z,16.50
2023-04-21T09:20:50.484Z,16.70
2023-04-21T09:24:59.962Z,16.40
2023-04-21T09:29:07.431Z,15.80
2023-04-21T09:33:27.857Z,15.70
2023-04-21T09:37:34.452Z,15.50
2023-04-21T09:41:37.296Z,15.80
2023-04-21T09:45:40.964Z,16.60
2023-04-21T09:49:46.549Z,17.40
2023-04-21T09:53:54.217Z,17.80
2023-04-21T09:58:00.587Z,18.60
2023-04-21T10:02:07.012Z,18.70
2023-04-21T10:06:12.667Z,18.50
2023-04-21T10:10:21.184Z,18.50
2023-04-21T10:14:24.287Z,18.40
2023-04-21T10:18:29.663Z,18.70
2023-04-21T10:22:35.359Z,19.20
2023-04-21T10:26:38.315Z,19.40
2023-04-21T10:30:41.355Z,19.60
2023-04-21T10:34:44.975Z,19.50
2023-04-21T10:38:57.565Z,19.20
2023-04-21T10:43:03.252Z,19.60
2023-04-21T10:47:08.872Z,19.60
2023-04-21T10:51:12.276Z,19.70
2023-04-21T10:55:17.072Z,19.50
2023-04-21T10:59:20.771Z,19.40
2023-04-21T11:03:23.696Z,19.80
2023-04-21T11:07:27.049Z,20.00
2023-04-21T11:11:31.243Z,19.90
2023-04-21T11:15:34.072Z,19.50
2023-04-21T11:19:38.058Z,19.40
2023-04-21T11:23:42.304Z,19.60
2023-04-21T11:27:54.843Z,20.00
2023-04-21T11:31:58.998Z,20.60
2023-04-21T11:36:05.735Z,21.80
2023-04-21T11:40:10.137Z,22.90
2023-04-21T11:44:15.323Z,24.70
2023-04-21T11:48:19.502Z,25.40
2023-04-21T11:52:24.347Z,27.50
2023-04-21T11:56:27.425Z,29.70
2023-04-21T12:00:33.573Z,29.10
2023-04-21T12:04:36.582Z,31.10
2023-04-21T12:08:41.525Z,32.00
2023-04-21T12:12:45.020Z,30.80
2023-04-21T12:16:51.847Z,32.30
2023-04-21T12:20:54.724Z,32.70
2023-04-21T12:24:57.531Z,33.00
2023-04-21T12:29:01.152Z,31.80
2023-04-21T12:33:05.247Z,31.30
2023-04-21T12:37:08.987Z,30.70
2023-04-21T12:41:11.759Z,32.60
2023-04-21T12:45:14.743Z,33.80
2023-04-21T12:49:18.962Z,31.00
2023-04-21T12:53:21.743Z,32.20
2023-04-21T12:57:24.571Z,33.10
2023-04-21T13:01:27.493Z,32.90
2023-04-21T13:05:31.773Z,33.10
2023-04-21T13:09:34.659Z,32.90
2023-04-21T13:13:37.539Z,32.50
2023-04-21T13:17:40.418Z,32.80
2023-04-21T13:21:45.190Z,31.90
2023-04-21T13:25:48.048Z,31.90
2023-04-21T13:29:50.901Z,31.80
2023-04-21T13:33:54.161Z,31.30
2023-04-21T13:37:58.623Z,31.20
2023-04-21T13:42:01.501Z,30.90
2023-04-21T13:46:04.381Z,30.00
2023-04-21T13:50:08.984Z,28.30
2023-04-21T13:54:13.248Z,28.00
2023-04-21T13:58:17.052Z,28.00
2023-04-21T14:02:21.438Z,26.60
2023-04-21T14:06:24.436Z,25.80
2023-04-21T14:10:28.679Z,25.80
2023-04-21T14:14:38.351Z,25.60
2023-04-21T14:18:45.086Z,24.70
2023-04-21T14:22:47.729Z,24.00
2023-04-21T14:26:52.001Z,23.60
2023-04-21T14:30:54.805Z,22.70
2023-04-21T14:34:59.191Z,22.20
2023-04-21T14:39:02.090Z,21.80
2023-04-21T14:43:06.277Z,21.90
2023-04-21T14:47:10.751Z,22.00
2023-04-21T14:51:13.944Z,21.90
2023-04-21T14:55:17.037Z,21.90
2023-04-21T14:59:23.078Z,21.50
2023-04-21T15:03:26.306Z,21.30
2023-04-21T15:07:29.198Z,20.90
2023-04-21T15:11:32.494Z,20.80
2023-04-21T15:15:36.668Z,20.90
2023-04-21T15:19:39.483Z,20.90
2023-04-21T15:23:42.247Z,20.50
2023-04-21T15:27:45.379Z,20.70
2023-04-21T15:31:49.542Z,20.80
2023-04-21T15:35:52.404Z,20.50
2023-04-21T15:39:55.247Z,20.50
2023-04-21T15:43:58.090Z,20.40
2023-04-21T15:48:02.417Z,20.60
2023-04-21T15:52:06.624Z,20.50
2023-04-21T15:56:11.320Z,20.20
2023-04-21T16:00:15.632Z,20.00
2023-04-21T16:04:19.972Z,20.00
2023-04-21T16:08:22.936Z,20.00
2023-04-21T16:12:25.867Z,19.90
2023-04-21T16:16:28.815Z,19.90
2023-04-21T16:20:33.154Z,19.90
2023-04-21T16:24:36.706Z,19.90
2023-04-21T16:28:39.859Z,19.80
2023-04-21T16:32:42.652Z,19.60
2023-04-21T16:36:46.877Z,19.60
2023-04-21T16:40:49.720Z,19.60
2023-04-21T16:44:58.394Z,19.60
2023-04-21T16:49:01.345Z,19.50
2023-04-21T16:53:05.639Z,19.50
2023-04-21T16:57:08.467Z,19.40
2023-04-21T17:01:12.019Z,19.20
2023-04-21T17:05:16.414Z,19.30
2023-04-21T17:09:20.606Z,19.20
2023-04-21T17:13:23.492Z,19.20
2023-04-21T17:17:26.400Z,19.10
2023-04-21T17:21:29.294Z,19.00
2023-04-21T17:25:33.756Z,18.90
2023-04-21T17:29:36.803Z,18.80
2023-04-21T17:33:39.654Z,18.70
2023-04-21T17:37:42.593Z,18.70
2023-04-21T17:41:48.417Z,18.70
2023-04-21T17:45:51.631Z,18.50
2023-04-21T17:49:54.602Z,18.40
2023-04-21T17:53:57.475Z,18.30
2023-04-21T17:58:01.645Z,18.20
2023-04-21T18:02:05.226Z,18.20
2023-04-21T18:06:10.458Z,18.20
2023-04-21T18:10:13.353Z,18.10
2023-04-21T18:14:17.566Z,18.00
2023-04-21T18:18:20.486Z,17.90
2023-04-21T18:22:23.365Z,17.80
2023-04-21T18:26:26.550Z,17.80
2023-04-21T18:30:30.735Z,17.70
2023-04-21T18:34:33.564Z,17.70
2023-04-21T18:38:36.816Z,17.70
2023-04-21T18:42:39.981Z,17.60
2023-04-21T18:46:44.205Z,17.50
2023-04-21T18:50:47.301Z,17.50
2023-04-21T18:54:50.436Z,17.50
2023-04-21T18:58:53.465Z,17.30
2023-04-21T19:02:57.762Z,17.20
2023-04-21T19:07:01.808Z,17.10
2023-04-21T19:11:04.688Z,17.00
2023-04-21T19:15:08.605Z,16.70
2023-04-21T19:19:12.797Z,16.60
2023-04-21T19:23:15.614Z,16.40
2023-04-21T19:27:18.520Z,16.50
2023-04-21T19:31:23.918Z,16.30
2023-04-21T19:35:28.617Z,16.40
2023-04-21T19:39:32.427Z,16.40
2023-04-21T19:43:35.498Z,16.10
2023-04-21T19:47:38.339Z,16.20
2023-04-21T19:51:42.495Z,16.20
2023-04-21T19:55:46.341Z,16.00
2023-04-21T19:59:49.796Z,16.00
2023-04-21T20:03:53.113Z,15.80
2023-04-21T20:07:57.489Z,15.70
2023-04-21T20:12:00.313Z,15.60
2023-04-21T20:16:03.467Z,15.50
2023-04-21T20:20:09.246Z,15.40
2023-04-21T20:24:13.398Z,15.30
2023-04-21T20:28:16.360Z,15.40
2023-04-21T20:32:19.159Z,15.30
2023-04-21T20:36:22.218Z,15.30
2023-04-21T20:40:26.495Z,15.30
2023-04-21T20:44:31.353Z,15.30
2023-04-21T20:48:34.160Z,15.30
2023-04-21T20:52:36.941Z,15.10
2023-04-21T20:56:41.273Z,15.10
2023-04-21T21:00:44.070Z,15.20
2023-04-21T21:04:47.730Z,15.00
2023-04-21T21:08:50.575Z,14.90
2023-04-21T21:12:54.755Z,14.90
2023-04-21T21:16:57.533Z,14.90
2023-04-21T21:21:00.432Z,14.70
2023-04-21T21:25:03.161Z,14.70
2023-04-21T21:29:07.603Z,14.70
2023-04-21T21:33:11.733Z,14.80
2023-04-21T21:37:14.506Z,14.60
2023-04-21T21:41:19.726Z,14.50
2023-04-21T21:45:23.918Z,14.50
2023-04-21T21:49:26.701Z,14.50
2023-04-21T21:53:29.704Z,14.40
2023-04-21T21:57:32.450Z,14.40
2023-04-21T22:01:36.695Z,14.30
2023-04-21T22:05:39.574Z,14.20
2023-04-21T22:09:42.321Z,14.20
2023-04-21T22:13:45.032Z,14.00
2023-04-21T22:17:49.201Z,13.80
2023-04-21T22:21:52.199Z,13.80
2023-04-21T22:25:55.010Z,13.80
2023-04-21T22:30:00.508Z,13.80
2023-04-21T22:34:04.828Z,13.80
2023-04-21T22:38:07.695Z,13.70
2023-04-21T22:42:10.532Z,13.60
2023-04-21T22:46:13.604Z,13.60
2023-04-21T22:50:17.810Z,13.60
2023-04-21T22:54:20.807Z,13.50
2023-04-21T22:58:23.664Z,13.50
2023-04-21T23:02:26.594Z,13.40
2023-04-21T23:06:31.939Z,13.30
2023-04-21T23:10:34.819Z,13.10
2023-04-21T23:14:37.663Z,13.20
2023-04-21T23:18:40.558Z,13.20
2023-04-21T23:22:45.084Z,13.20
2023-04-21T23:26:47.974Z,13.10
2023-04-21T23:30:51.049Z,13.00
2023-04-21T23:34:53.955Z,13.00
2023-04-21T23:38:58.078Z,13.00
2023-04-21T23:43:01.111Z,12.60
2023-04-21T23:47:04.002Z,12.50
2023-04-21T23:51:07.129Z,12.50
2023-04-21T23:55:12.070Z,12.40
2023-04-21T23:59:14.798Z,12.40
